createdAt,value
2023-05-14T00:01:37.506Z,37.13
2023-05-14T00:04:06.142Z,41.13
2023-05-14T00:06:32.776Z,34.58
2023-05-14T00:08:59.492Z,40.78
2023-05-14T00:11:26.263Z,30.55
2023-05-14T00:13:53.020Z,32.28
2023-05-14T00:16:20.833Z,34.88
2023-05-14T00:18:47.492Z,33.17
2023-05-14T00:21:14.502Z,37.15
2023-05-14T00:23:40.994Z,36.03
2023-05-14T00:26:07.857Z,34.80
2023-05-14T00:28:34.750Z,32.33
2023-05-14T00:31:01.414Z,34.25
2023-05-14T00:33:28.426Z,33.95
2023-05-14T00:35:54.980Z,35.15
2023-05-14T00:38:21.704Z,35.58
2023-05-14T00:40:51.847Z,36.33
2023-05-14T00:43:20.018Z,35.58
2023-05-14T00:45:50.555Z,33.17
2023-05-14T00:48:18.255Z,33.53
2023-05-14T00:50:45.236Z,30.65
2023-05-14T00:53:12.606Z,33.08
2023-05-14T00:55:40.862Z,33.80
2023-05-14T00:58:13.737Z,32.90
2023-05-14T01:00:42.164Z,30.95
2023-05-14T01:03:09.696Z,34.50
2023-05-14T01:06:24.218Z,33.72
2023-05-14T01:09:01.365Z,32.05
2023-05-14T01:12:06.519Z,33.05
2023-05-14T01:14:44.599Z,37.40
2023-05-14T01:17:15.394Z,37.40
2023-05-14T01:19:44.255Z,33.38
2023-05-14T01:22:12.932Z,33.78
2023-05-14T01:24:43.752Z,35.42
2023-05-14T01:27:30.320Z,37.13
2023-05-14T01:30:22.410Z,31.27
2023-05-14T01:32:53.671Z,32.92
2023-05-14T01:35:27.762Z,43.60
2023-05-14T01:37:58.460Z,31.35
2023-05-14T01:40:25.881Z,35.38
2023-05-14T01:42:54.392Z,33.75
2023-05-14T01:45:22.030Z,35.95
2023-05-14T01:47:51.520Z,31.48
2023-05-14T01:50:18.710Z,37.25
2023-05-14T01:52:46.867Z,36.45
2023-05-14T01:55:13.785Z,41.05
2023-05-14T01:57:40.669Z,37.03
2023-05-14T02:00:07.929Z,35.30
2023-05-14T02:02:34.650Z,34.83
2023-05-14T02:05:01.362Z,33.55
2023-05-14T02:07:28.353Z,35.22
2023-05-14T02:09:55.398Z,38.35
2023-05-14T02:12:22.643Z,34.28
2023-05-14T02:14:49.392Z,35.47
2023-05-14T02:17:17.724Z,36.22
2023-05-14T02:19:45.227Z,37.90
2023-05-14T02:22:12.070Z,33.75
2023-05-14T02:24:41.681Z,39.13
2023-05-14T02:27:08.889Z,32.90
2023-05-14T02:29:35.664Z,34.40
2023-05-14T02:32:02.424Z,39.22
2023-05-14T02:34:30.056Z,34.05
2023-05-14T02:36:56.714Z,34.17
2023-05-14T02:39:25.388Z,34.30
2023-05-14T02:41:51.981Z,36.63
2023-05-14T02:44:18.784Z,33.17
2023-05-14T02:46:45.708Z,33.10
2023-05-14T02:49:12.408Z,38.40
2023-05-14T02:51:39.189Z,37.67
2023-05-14T02:54:07.408Z,35.10
2023-05-14T02:56:33.975Z,35.00
2023-05-14T02:59:00.729Z,38.60
2023-05-14T03:01:30.622Z,36.92
2023-05-14T03:03:58.157Z,34.90
2023-05-14T03:06:27.538Z,35.70
2023-05-14T03:08:54.042Z,37.00
2023-05-14T03:11:21.081Z,36.00
2023-05-14T03:13:49.044Z,36.25
2023-05-14T03:16:16.204Z,36.35
2023-05-14T03:18:42.790Z,37.90
2023-05-14T03:21:11.432Z,37.40
2023-05-14T03:23:38.040Z,38.15
2023-05-14T03:26:05.008Z,38.28
2023-05-14T03:28:31.721Z,39.67
2023-05-14T03:30:58.846Z,37.65
2023-05-14T03:33:33.387Z,40.90
2023-05-14T03:35:59.926Z,38.40
2023-05-14T03:38:26.524Z,40.22
2023-05-14T03:40:53.289Z,39.10
2023-05-14T03:43:21.988Z,41.20
2023-05-14T03:45:52.770Z,39.80
2023-05-14T03:48:20.550Z,42.58
2023-05-14T03:50:47.508Z,40.42
2023-05-14T03:53:14.103Z,39.60
2023-05-14T03:55:41.137Z,44.78
2023-05-14T03:58:13.719Z,40.85
2023-05-14T04:00:42.169Z,45.05
2023-05-14T04:03:09.516Z,39.83
2023-05-14T04:05:43.429Z,40.90
2023-05-14T04:08:12.707Z,42.37
2023-05-14T04:10:40.434Z,42.03
2023-05-14T04:13:09.438Z,46.13
2023-05-14T04:15:38.235Z,40.85
2023-05-14T04:18:05.611Z,41.75
2023-05-14T04:20:32.730Z,41.13
2023-05-14T04:22:59.668Z,42.28
2023-05-14T04:25:28.383Z,42.35
2023-05-14T04:27:56.438Z,42.60
2023-05-14T04:30:23.202Z,45.63
2023-05-14T04:32:49.953Z,43.83
2023-05-14T04:35:16.662Z,44.17
2023-05-14T04:37:43.316Z,42.28
2023-05-14T04:40:14.441Z,43.40
2023-05-14T04:42:41.354Z,41.33
2023-05-14T04:45:08.947Z,42.67
2023-05-14T04:47:36.091Z,40.30
2023-05-14T04:50:02.937Z,38.63
2023-05-14T04:52:29.541Z,40.45
2023-05-14T04:54:57.017Z,40.88
2023-05-14T04:57:25.802Z,38.35
2023-05-14T04:59:53.467Z,39.80
2023-05-14T05:02:21.062Z,40.92
2023-05-14T05:04:51.309Z,39.25
2023-05-14T05:07:19.396Z,40.08
2023-05-14T05:09:46.295Z,38.40
2023-05-14T05:12:14.979Z,39.15
2023-05-14T05:14:43.182Z,37.15
2023-05-14T05:17:10.168Z,37.78
2023-05-14T05:19:43.701Z,37.88
2023-05-14T05:22:11.228Z,39.13
2023-05-14T05:24:37.949Z,37.50
2023-05-14T05:27:08.034Z,38.10
2023-05-14T05:29:35.450Z,39.17
2023-05-14T05:32:02.029Z,39.78
2023-05-14T05:34:28.555Z,38.17
2023-05-14T05:36:55.158Z,40.40
2023-05-14T05:39:23.320Z,40.95
2023-05-14T05:41:50.283Z,40.72
2023-05-14T05:44:17.367Z,38.55
2023-05-14T05:46:44.329Z,39.33
2023-05-14T05:49:11.614Z,35.97
2023-05-14T05:51:38.278Z,34.35
2023-05-14T05:54:07.016Z,35.80
2023-05-14T05:56:33.841Z,39.15
2023-05-14T05:59:00.976Z,36.13
2023-05-14T06:01:29.857Z,33.05
2023-05-14T06:03:57.398Z,36.47
2023-05-14T06:06:24.036Z,35.60
2023-05-14T06:08:50.804Z,36.65
2023-05-14T06:11:17.374Z,40.13
2023-05-14T06:13:49.945Z,35.92
2023-05-14T06:16:18.093Z,38.30
2023-05-14T06:18:46.649Z,33.40
2023-05-14T06:21:13.709Z,36.17
2023-05-14T06:23:41.593Z,37.28
2023-05-14T06:26:08.174Z,33.88
2023-05-14T06:28:35.949Z,33.63
2023-05-14T06:31:02.614Z,40.33
2023-05-14T06:33:33.179Z,36.47
2023-05-14T06:36:05.787Z,35.35
2023-05-14T06:38:32.538Z,33.00
2023-05-14T06:40:59.200Z,31.98
2023-05-14T06:43:25.931Z,35.40
2023-05-14T06:45:52.571Z,34.08
2023-05-14T06:48:20.091Z,33.63
2023-05-14T06:50:48.192Z,32.58
2023-05-14T06:53:19.784Z,28.67
2023-05-14T06:55:51.172Z,37.97
2023-05-14T06:58:17.839Z,35.92
2023-05-14T07:00:44.468Z,35.63
2023-05-14T07:03:11.211Z,39.42
2023-05-14T07:05:38.097Z,35.65
2023-05-14T07:08:04.870Z,35.28
2023-05-14T07:10:32.162Z,34.15
2023-05-14T07:12:58.902Z,40.97
2023-05-14T07:15:25.458Z,41.97
2023-05-14T07:20:36.646Z,42.22
2023-05-14T07:23:23.971Z,35.15
2023-05-14T07:25:58.024Z,44.10
2023-05-14T07:28:26.465Z,35.50
2023-05-14T07:30:54.425Z,33.42
2023-05-14T07:36:03.643Z,37.17
2023-05-14T07:38:33.019Z,38.70
2023-05-14T07:41:01.206Z,39.60
2023-05-14T07:43:28.019Z,37.17
2023-05-14T07:45:56.084Z,40.50
2023-05-14T07:48:23.259Z,33.22
2023-05-14T07:50:51.949Z,32.95
2023-05-14T07:53:18.911Z,34.47
2023-05-14T07:55:48.481Z,33.13
2023-05-14T07:58:16.523Z,35.40
2023-05-14T08:00:44.844Z,34.45
2023-05-14T08:03:11.717Z,31.88
2023-05-14T08:05:38.798Z,35.28
2023-05-14T08:08:05.624Z,30.10
2023-05-14T08:10:32.275Z,27.55
2023-05-14T08:12:59.040Z,30.00
2023-05-14T08:15:27.753Z,32.85
2023-05-14T08:17:56.131Z,31.23
2023-05-14T08:20:23.732Z,33.67
2023-05-14T08:22:51.300Z,33.17
2023-05-14T08:25:17.958Z,28.08
2023-05-14T08:27:44.693Z,31.35
2023-05-14T08:30:12.521Z,32.85
2023-05-14T08:32:39.829Z,29.52
2023-05-14T08:35:07.054Z,31.00
2023-05-14T08:37:33.716Z,31.80
2023-05-14T08:40:02.184Z,33.70
2023-05-14T08:42:31.398Z,31.42
2023-05-14T08:45:03.714Z,28.77
2023-05-14T08:47:31.735Z,35.97
2023-05-14T08:50:06.667Z,32.10
2023-05-14T08:52:36.481Z,25.88
2023-05-14T08:55:07.432Z,23.85
2023-05-14T08:57:37.249Z,30.00
2023-05-14T09:00:15.622Z,24.80
2023-05-14T09:02:44.937Z,27.80
2023-05-14T09:05:13.723Z,28.92
2023-05-14T09:07:40.415Z,26.67
2023-05-14T09:10:09.513Z,22.08
2023-05-14T09:12:38.009Z,22.60
2023-05-14T09:15:07.055Z,24.30
2023-05-14T09:17:36.012Z,22.67
2023-05-14T09:20:04.093Z,18.73
2023-05-14T19:11:12.362Z,10.13
2023-05-14T19:13:42.193Z,11.77
2023-05-14T19:16:09.010Z,11.50
2023-05-14T19:18:46.705Z,12.50
2023-05-14T19:21:19.691Z,13.98
2023-05-14T19:26:38.594Z,18.65
2023-05-14T19:29:05.534Z,9.63
2023-05-14T19:31:32.318Z,12.80
2023-05-14T19:33:59.009Z,18.90
2023-05-14T19:36:27.510Z,8.52
2023-05-14T19:38:54.091Z,14.88
2023-05-14T19:41:22.074Z,15.05
2023-05-14T19:43:51.394Z,15.45
2023-05-14T19:46:18.036Z,13.07
2023-05-14T19:48:45.306Z,12.68
2023-05-14T19:51:13.577Z,13.90
2023-05-14T19:53:45.932Z,11.48
2023-05-14T19:56:14.579Z,15.77
2023-05-14T19:58:43.149Z,14.82
2023-05-14T20:01:10.223Z,13.48
2023-05-14T20:03:37.764Z,15.23
2023-05-14T20:06:07.125Z,15.77
2023-05-14T20:08:34.146Z,18.75
2023-05-14T20:11:00.799Z,14.68
2023-05-14T20:13:31.801Z,14.63
2023-05-14T20:16:01.121Z,20.27
2023-05-14T20:18:27.964Z,19.65
2023-05-14T20:20:55.071Z,13.38
2023-05-14T20:23:22.233Z,11.43
2023-05-14T20:25:51.659Z,18.52
2023-05-14T20:28:18.881Z,23.35
2023-05-14T20:30:48.409Z,15.10
2023-05-14T20:33:15.284Z,20.95
2023-05-14T20:35:48.296Z,16.85
2023-05-14T20:38:16.780Z,14.93
2023-05-14T20:40:49.380Z,16.90
2023-05-14T20:43:25.290Z,18.45
2023-05-14T20:46:06.562Z,18.42
2023-05-14T20:48:34.559Z,18.73
2023-05-14T20:51:06.277Z,19.35
2023-05-14T20:53:34.507Z,14.98
2023-05-14T20:56:01.633Z,16.38
2023-05-14T20:58:32.757Z,17.30
2023-05-14T21:01:00.514Z,17.73
2023-05-14T21:03:31.468Z,20.25
2023-05-14T21:06:03.366Z,17.92
2023-05-14T21:08:33.323Z,18.50
2023-05-14T21:11:11.399Z,22.02
2023-05-14T21:13:50.259Z,19.00
2023-05-14T21:16:30.869Z,20.10
2023-05-14T21:19:01.242Z,20.10
2023-05-14T21:21:32.861Z,20.83
2023-05-14T21:24:02.244Z,20.75
2023-05-14T21:26:32.482Z,18.88
2023-05-14T21:29:00.048Z,21.10
2023-05-14T21:31:28.941Z,19.70
2023-05-14T21:33:57.637Z,20.60
2023-05-14T21:36:24.517Z,24.17
2023-05-14T21:38:56.443Z,21.17
